sensor_id;sensor_type;location;lat;lon;timestamp;P1;durP1;ratioP1;P2;durP2;ratioP2
21334;SDS011;10826;52.536;13.432;2022-12-07T00:03:43;8.27;;;7.20;;
21334;SDS011;10826;52.536;13.432;2022-12-07T00:06:12;8.40;;;7.27;;
21334;SDS011;10826;52.536;13.432;2022-12-07T00:08:40;8.47;;;6.93;;
21334;SDS011;10826;52.536;13.432;2022-12-07T00:11:07;7.70;;;6.87;;
21334;SDS011;10826;52.536;13.432;2022-12-07T00:13:42;9.47;;;7.30;;
21334;SDS011;10826;52.536;13.432;2022-12-07T00:16:10;8.33;;;6.83;;
21334;SDS011;10826;52.536;13.432;2022-12-07T00:18:40;8.23;;;6.67;;
21334;SDS011;10826;52.536;13.432;2022-12-07T00:21:11;7.03;;;6.33;;
21334;SDS011;10826;52.536;13.432;2022-12-07T00:23:40;7.40;;;6.57;;
21334;SDS011;10826;52.536;13.432;2022-12-07T00:26:19;7.83;;;6.57;;
21334;SDS011;10826;52.536;13.432;2022-12-07T00:28:54;7.83;;;6.33;;
21334;SDS011;10826;52.536;13.432;2022-12-07T00:31:25;7.27;;;6.57;;
21334;SDS011;10826;52.536;13.432;2022-12-07T00:33:56;6.87;;;6.23;;
21334;SDS011;10826;52.536;13.432;2022-12-07T00:36:23;6.97;;;6.27;;
21334;SDS011;10826;52.536;13.432;2022-12-07T00:38:50;7.47;;;6.20;;
21334;SDS011;10826;52.536;13.432;2022-12-07T00:41:17;7.27;;;6.57;;
21334;SDS011;10826;52.536;13.432;2022-12-07T00:43:46;7.00;;;6.30;;
21334;SDS011;10826;52.536;13.432;2022-12-07T00:46:13;7.80;;;6.40;;
21334;SDS011;10826;52.536;13.432;2022-12-07T00:48:41;8.30;;;6.73;;
21334;SDS011;10826;52.536;13.432;2022-12-07T00:51:09;7.03;;;6.37;;
21334;SDS011;10826;52.536;13.432;2022-12-07T00:53:37;6.80;;;6.03;;
21334;SDS011;10826;52.536;13.432;2022-12-07T00:56:07;8.17;;;6.57;;
21334;SDS011;10826;52.536;13.432;2022-12-07T00:58:38;6.50;;;5.87;;
21334;SDS011;10826;52.536;13.432;2022-12-07T01:01:05;7.10;;;6.17;;
21334;SDS011;10826;52.536;13.432;2022-12-07T01:03:33;6.67;;;6.07;;
21334;SDS011;10826;52.536;13.432;2022-12-07T01:06:02;7.00;;;6.30;;
21334;SDS011;10826;52.536;13.432;2022-12-07T01:08:29;7.33;;;6.33;;
21334;SDS011;10826;52.536;13.432;2022-12-07T01:10:59;7.33;;;6.40;;
21334;SDS011;10826;52.536;13.432;2022-12-07T01:13:31;7.20;;;6.13;;
21334;SDS011;10826;52.536;13.432;2022-12-07T01:15:59;7.10;;;6.03;;
21334;SDS011;10826;52.536;13.432;2022-12-07T01:18:29;8.03;;;6.13;;
21334;SDS011;10826;52.536;13.432;2022-12-07T01:21:03;10.90;;;7.13;;
21334;SDS011;10826;52.536;13.432;2022-12-07T01:23:37;7.67;;;6.87;;
21334;SDS011;10826;52.536;13.432;2022-12-07T01:26:05;6.90;;;6.17;;
21334;SDS011;10826;52.536;13.432;2022-12-07T01:28:34;6.53;;;5.93;;
21334;SDS011;10826;52.536;13.432;2022-12-07T01:31:04;5.77;;;5.27;;
21334;SDS011;10826;52.536;13.432;2022-12-07T01:33:42;6.00;;;5.37;;
21334;SDS011;10826;52.536;13.432;2022-12-07T01:38:55;10.77;;;6.07;;
21334;SDS011;10826;52.536;13.432;2022-12-07T01:41:25;7.70;;;5.63;;
21334;SDS011;10826;52.536;13.432;2022-12-07T01:44:07;7.87;;;5.70;;
21334;SDS011;10826;52.536;13.432;2022-12-07T01:46:45;6.90;;;5.50;;
21334;SDS011;10826;52.536;13.432;2022-12-07T01:49:22;6.50;;;5.80;;
21334;SDS011;10826;52.536;13.432;2022-12-07T01:51:52;6.93;;;5.43;;
21334;SDS011;10826;52.536;13.432;2022-12-07T01:54:46;5.17;;;4.73;;
21334;SDS011;10826;52.536;13.432;2022-12-07T01:57:16;6.43;;;5.63;;
21334;SDS011;10826;52.536;13.432;2022-12-07T01:59:47;6.07;;;4.40;;
21334;SDS011;10826;52.536;13.432;2022-12-07T02:02:18;6.07;;;5.43;;
21334;SDS011;10826;52.536;13.432;2022-12-07T02:05:16;6.07;;;5.07;;
21334;SDS011;10826;52.536;13.432;2022-12-07T02:07:43;4.77;;;4.27;;
21334;SDS011;10826;52.536;13.432;2022-12-07T02:10:16;5.00;;;4.50;;
21334;SDS011;10826;52.536;13.432;2022-12-07T02:12:44;4.77;;;4.37;;
21334;SDS011;10826;52.536;13.432;2022-12-07T02:15:16;4.37;;;3.97;;
21334;SDS011;10826;52.536;13.432;2022-12-07T02:21:03;3.93;;;3.63;;
21334;SDS011;10826;52.536;13.432;2022-12-07T02:29:32;3.80;;;3.50;;
21334;SDS011;10826;52.536;13.432;2022-12-07T02:32:12;4.00;;;3.70;;
21334;SDS011;10826;52.536;13.432;2022-12-07T02:35:07;4.67;;;4.27;;
21334;SDS011;10826;52.536;13.432;2022-12-07T02:37:57;4.63;;;4.23;;
21334;SDS011;10826;52.536;13.432;2022-12-07T02:40:36;4.40;;;4.10;;
21334;SDS011;10826;52.536;13.432;2022-12-07T02:43:18;4.57;;;4.17;;
21334;SDS011;10826;52.536;13.432;2022-12-07T02:45:49;4.90;;;4.37;;
21334;SDS011;10826;52.536;13.432;2022-12-07T02:48:20;5.27;;;4.77;;
21334;SDS011;10826;52.536;13.432;2022-12-07T02:50:49;5.20;;;4.80;;
21334;SDS011;10826;52.536;13.432;2022-12-07T02:56:06;6.07;;;5.20;;
21334;SDS011;10826;52.536;13.432;2022-12-07T03:08:21;5.03;;;4.53;;
21334;SDS011;10826;52.536;13.432;2022-12-07T03:11:01;5.60;;;5.10;;
21334;SDS011;10826;52.536;13.432;2022-12-07T03:16:46;5.47;;;4.97;;
21334;SDS011;10826;52.536;13.432;2022-12-07T03:19:37;5.57;;;5.07;;
21334;SDS011;10826;52.536;13.432;2022-12-07T03:22:07;7.03;;;5.63;;
21334;SDS011;10826;52.536;13.432;2022-12-07T03:24:47;6.30;;;5.70;;
21334;SDS011;10826;52.536;13.432;2022-12-07T03:29:54;6.53;;;5.80;;
21334;SDS011;10826;52.536;13.432;2022-12-07T03:32:40;6.33;;;5.70;;
21334;SDS011;10826;52.536;13.432;2022-12-07T03:35:28;6.97;;;5.60;;
21334;SDS011;10826;52.536;13.432;2022-12-07T03:38:25;6.73;;;5.77;;
21334;SDS011;10826;52.536;13.432;2022-12-07T03:44:00;6.33;;;5.23;;
21334;SDS011;10826;52.536;13.432;2022-12-07T03:46:43;7.20;;;6.43;;
21334;SDS011;10826;52.536;13.432;2022-12-07T03:49:33;7.30;;;6.27;;
21334;SDS011;10826;52.536;13.432;2022-12-07T03:52:23;9.30;;;6.47;;
21334;SDS011;10826;52.536;13.432;2022-12-07T03:55:11;7.50;;;6.70;;
21334;SDS011;10826;52.536;13.432;2022-12-07T03:57:53;7.50;;;5.70;;
21334;SDS011;10826;52.536;13.432;2022-12-07T04:00:26;7.40;;;5.77;;
21334;SDS011;10826;52.536;13.432;2022-12-07T04:02:52;6.10;;;5.53;;
21334;SDS011;10826;52.536;13.432;2022-12-07T04:05:18;6.70;;;6.00;;
21334;SDS011;10826;52.536;13.432;2022-12-07T04:07:45;9.27;;;6.20;;
21334;SDS011;10826;52.536;13.432;2022-12-07T04:10:11;10.20;;;7.00;;
21334;SDS011;10826;52.536;13.432;2022-12-07T04:12:37;8.03;;;6.90;;
21334;SDS011;10826;52.536;13.432;2022-12-07T04:15:03;9.17;;;6.87;;
21334;SDS011;10826;52.536;13.432;2022-12-07T04:17:30;9.23;;;6.83;;
21334;SDS011;10826;52.536;13.432;2022-12-07T04:19:55;7.80;;;7.00;;
21334;SDS011;10826;52.536;13.432;2022-12-07T04:22:21;10.47;;;7.30;;
21334;SDS011;10826;52.536;13.432;2022-12-07T04:24:47;8.93;;;8.03;;
21334;SDS011;10826;52.536;13.432;2022-12-07T04:27:13;7.87;;;6.90;;
21334;SDS011;10826;52.536;13.432;2022-12-07T04:29:39;8.20;;;7.17;;
21334;SDS011;10826;52.536;13.432;2022-12-07T04:32:05;10.53;;;8.03;;
21334;SDS011;10826;52.536;13.432;2022-12-07T04:34:31;8.17;;;7.00;;
21334;SDS011;10826;52.536;13.432;2022-12-07T04:36:57;8.20;;;7.27;;
21334;SDS011;10826;52.536;13.432;2022-12-07T04:39:25;8.50;;;7.03;;
21334;SDS011;10826;52.536;13.432;2022-12-07T04:41:53;8.93;;;7.33;;
21334;SDS011;10826;52.536;13.432;2022-12-07T04:44:20;9.07;;;7.53;;
21334;SDS011;10826;52.536;13.432;2022-12-07T04:46:47;10.53;;;8.43;;
21334;SDS011;10826;52.536;13.432;2022-12-07T04:49:14;9.20;;;8.17;;
21334;SDS011;10826;52.536;13.432;2022-12-07T04:51:42;11.00;;;8.70;;
21334;SDS011;10826;52.536;13.432;2022-12-07T04:54:08;8.63;;;7.80;;
21334;SDS011;10826;52.536;13.432;2022-12-07T04:56:35;9.90;;;8.53;;
21334;SDS011;10826;52.536;13.432;2022-12-07T04:59:02;11.50;;;8.27;;
21334;SDS011;10826;52.536;13.432;2022-12-07T05:01:29;11.13;;;8.47;;
21334;SDS011;10826;52.536;13.432;2022-12-07T05:03:55;11.53;;;8.70;;
21334;SDS011;10826;52.536;13.432;2022-12-07T05:06:22;11.27;;;8.63;;
21334;SDS011;10826;52.536;13.432;2022-12-07T05:08:48;12.87;;;9.07;;
21334;SDS011;10826;52.536;13.432;2022-12-07T05:11:14;11.57;;;9.10;;
21334;SDS011;10826;52.536;13.432;2022-12-07T05:13:59;13.97;;;9.73;;
21334;SDS011;10826;52.536;13.432;2022-12-07T05:16:30;11.43;;;9.20;;
21334;SDS011;10826;52.536;13.432;2022-12-07T05:18:57;11.13;;;9.33;;
21334;SDS011;10826;52.536;13.432;2022-12-07T05:21:23;11.27;;;9.40;;
21334;SDS011;10826;52.536;13.432;2022-12-07T05:23:49;11.17;;;9.13;;
21334;SDS011;10826;52.536;13.432;2022-12-07T05:26:15;13.63;;;10.23;;
21334;SDS011;10826;52.536;13.432;2022-12-07T05:28:41;14.17;;;10.60;;
21334;SDS011;10826;52.536;13.432;2022-12-07T05:31:07;13.40;;;10.93;;
21334;SDS011;10826;52.536;13.432;2022-12-07T05:33:32;17.30;;;11.47;;
21334;SDS011;10826;52.536;13.432;2022-12-07T05:35:58;12.30;;;9.70;;
21334;SDS011;10826;52.536;13.432;2022-12-07T05:38:30;14.77;;;11.43;;
21334;SDS011;10826;52.536;13.432;2022-12-07T05:41:04;14.73;;;10.93;;
21334;SDS011;10826;52.536;13.432;2022-12-07T05:43:31;15.67;;;11.30;;
21334;SDS011;10826;52.536;13.432;2022-12-07T05:45:58;18.77;;;11.10;;
21334;SDS011;10826;52.536;13.432;2022-12-07T05:48:25;17.63;;;11.57;;
21334;SDS011;10826;52.536;13.432;2022-12-07T05:50:51;15.60;;;10.77;;
21334;SDS011;10826;52.536;13.432;2022-12-07T05:53:18;18.37;;;12.30;;
21334;SDS011;10826;52.536;13.432;2022-12-07T05:55:44;17.03;;;12.43;;
21334;SDS011;10826;52.536;13.432;2022-12-07T05:58:10;17.93;;;12.93;;
21334;SDS011;10826;52.536;13.432;2022-12-07T06:00:55;21.87;;;14.03;;
21334;SDS011;10826;52.536;13.432;2022-12-07T06:03:21;19.50;;;11.70;;
21334;SDS011;10826;52.536;13.432;2022-12-07T06:05:48;19.87;;;13.37;;
21334;SDS011;10826;52.536;13.432;2022-12-07T06:08:14;19.30;;;12.20;;
21334;SDS011;10826;52.536;13.432;2022-12-07T06:10:41;21.57;;;12.90;;
21334;SDS011;10826;52.536;13.432;2022-12-07T06:13:07;19.67;;;12.40;;
21334;SDS011;10826;52.536;13.432;2022-12-07T06:15:37;20.83;;;11.70;;
21334;SDS011;10826;52.536;13.432;2022-12-07T06:18:03;19.40;;;12.03;;
21334;SDS011;10826;52.536;13.432;2022-12-07T06:20:29;18.60;;;11.60;;
21334;SDS011;10826;52.536;13.432;2022-12-07T06:22:55;21.23;;;12.20;;
21334;SDS011;10826;52.536;13.432;2022-12-07T06:25:20;20.17;;;11.87;;
21334;SDS011;10826;52.536;13.432;2022-12-07T06:27:46;20.57;;;12.73;;
21334;SDS011;10826;52.536;13.432;2022-12-07T06:30:12;18.47;;;11.57;;
21334;SDS011;10826;52.536;13.432;2022-12-07T06:32:38;17.17;;;12.50;;
21334;SDS011;10826;52.536;13.432;2022-12-07T06:35:04;19.70;;;11.70;;
21334;SDS011;10826;52.536;13.432;2022-12-07T06:37:30;20.07;;;12.03;;
21334;SDS011;10826;52.536;13.432;2022-12-07T06:39:56;16.87;;;10.83;;
21334;SDS011;10826;52.536;13.432;2022-12-07T06:42:22;18.70;;;11.67;;
21334;SDS011;10826;52.536;13.432;2022-12-07T06:44:48;17.53;;;12.33;;
21334;SDS011;10826;52.536;13.432;2022-12-07T06:47:14;15.77;;;11.93;;
21334;SDS011;10826;52.536;13.432;2022-12-07T06:49:39;16.63;;;13.10;;
21334;SDS011;10826;52.536;13.432;2022-12-07T06:52:05;18.10;;;12.93;;
21334;SDS011;10826;52.536;13.432;2022-12-07T06:54:31;20.10;;;11.90;;
21334;SDS011;10826;52.536;13.432;2022-12-07T06:56:57;16.50;;;11.43;;
21334;SDS011;10826;52.536;13.432;2022-12-07T06:59:23;19.03;;;12.40;;
21334;SDS011;10826;52.536;13.432;2022-12-07T07:01:49;16.43;;;11.37;;
21334;SDS011;10826;52.536;13.432;2022-12-07T07:04:14;17.47;;;12.63;;
21334;SDS011;10826;52.536;13.432;2022-12-07T07:06:40;19.27;;;12.63;;
21334;SDS011;10826;52.536;13.432;2022-12-07T07:09:06;16.07;;;11.63;;
21334;SDS011;10826;52.536;13.432;2022-12-07T07:11:32;19.90;;;12.53;;
21334;SDS011;10826;52.536;13.432;2022-12-07T07:13:58;16.87;;;11.87;;
21334;SDS011;10826;52.536;13.432;2022-12-07T07:16:27;18.33;;;12.07;;
21334;SDS011;10826;52.536;13.432;2022-12-07T07:18:56;21.63;;;12.57;;
21334;SDS011;10826;52.536;13.432;2022-12-07T07:21:22;18.37;;;12.53;;
21334;SDS011;10826;52.536;13.432;2022-12-07T07:23:48;21.90;;;13.17;;
21334;SDS011;10826;52.536;13.432;2022-12-07T07:26:14;16.77;;;12.13;;
21334;SDS011;10826;52.536;13.432;2022-12-07T07:28:39;20.33;;;12.13;;
21334;SDS011;10826;52.536;13.432;2022-12-07T07:31:05;14.43;;;11.77;;
21334;SDS011;10826;52.536;13.432;2022-12-07T07:33:31;17.40;;;12.03;;
21334;SDS011;10826;52.536;13.432;2022-12-07T07:35:57;22.47;;;13.80;;
21334;SDS011;10826;52.536;13.432;2022-12-07T07:38:23;28.90;;;18.37;;
21334;SDS011;10826;52.536;13.432;2022-12-07T07:40:49;38.60;;;20.57;;
21334;SDS011;10826;52.536;13.432;2022-12-07T07:43:15;30.90;;;17.50;;
21334;SDS011;10826;52.536;13.432;2022-12-07T07:45:41;47.30;;;25.80;;
21334;SDS011;10826;52.536;13.432;2022-12-07T07:48:06;23.90;;;14.80;;
21334;SDS011;10826;52.536;13.432;2022-12-07T07:50:32;29.43;;;18.33;;
21334;SDS011;10826;52.536;13.432;2022-12-07T07:52:58;19.03;;;12.70;;
21334;SDS011;10826;52.536;13.432;2022-12-07T07:55:24;17.00;;;12.37;;
21334;SDS011;10826;52.536;13.432;2022-12-07T07:57:50;16.67;;;12.27;;
21334;SDS011;10826;52.536;13.432;2022-12-07T08:00:16;17.13;;;11.67;;
21334;SDS011;10826;52.536;13.432;2022-12-07T08:02:42;12.70;;;9.03;;
21334;SDS011;10826;52.536;13.432;2022-12-07T08:05:12;15.27;;;11.20;;
21334;SDS011;10826;52.536;13.432;2022-12-07T08:07:39;11.30;;;9.00;;
21334;SDS011;10826;52.536;13.432;2022-12-07T08:10:06;14.60;;;9.43;;
21334;SDS011;10826;52.536;13.432;2022-12-07T08:12:36;8.67;;;7.10;;
21334;SDS011;10826;52.536;13.432;2022-12-07T08:15:26;9.63;;;7.20;;
21334;SDS011;10826;52.536;13.432;2022-12-07T08:17:54;8.97;;;6.83;;
21334;SDS011;10826;52.536;13.432;2022-12-07T08:20:20;10.47;;;7.90;;
21334;SDS011;10826;52.536;13.432;2022-12-07T08:22:46;10.67;;;6.30;;
21334;SDS011;10826;52.536;13.432;2022-12-07T08:25:12;10.07;;;6.00;;
21334;SDS011;10826;52.536;13.432;2022-12-07T08:27:38;8.37;;;5.83;;
21334;SDS011;10826;52.536;13.432;2022-12-07T08:30:05;6.53;;;5.23;;
21334;SDS011;10826;52.536;13.432;2022-12-07T08:32:32;6.00;;;4.90;;
21334;SDS011;10826;52.536;13.432;2022-12-07T08:34:57;6.83;;;5.07;;
21334;SDS011;10826;52.536;13.432;2022-12-07T08:37:23;5.97;;;4.97;;
21334;SDS011;10826;52.536;13.432;2022-12-07T08:39:49;5.63;;;5.13;;
21334;SDS011;10826;52.536;13.432;2022-12-07T08:42:15;8.53;;;5.57;;
21334;SDS011;10826;52.536;13.432;2022-12-07T08:44:40;8.20;;;5.73;;
21334;SDS011;10826;52.536;13.432;2022-12-07T08:47:06;6.70;;;5.00;;
21334;SDS011;10826;52.536;13.432;2022-12-07T08:49:39;7.43;;;4.47;;
21334;SDS011;10826;52.536;13.432;2022-12-07T08:52:08;10.83;;;4.30;;
21334;SDS011;10826;52.536;13.432;2022-12-07T08:54:35;3.60;;;3.30;;
21334;SDS011;10826;52.536;13.432;2022-12-07T08:57:04;5.03;;;4.30;;
21334;SDS011;10826;52.536;13.432;2022-12-07T08:59:32;3.90;;;3.37;;
21334;SDS011;10826;52.536;13.432;2022-12-07T09:02:00;3.27;;;2.97;;
21334;SDS011;10826;52.536;13.432;2022-12-07T09:04:26;5.47;;;4.93;;
21334;SDS011;10826;52.536;13.432;2022-12-07T09:06:53;3.10;;;2.90;;
21334;SDS011;10826;52.536;13.432;2022-12-07T09:09:20;2.90;;;2.70;;
21334;SDS011;10826;52.536;13.432;2022-12-07T09:11:46;3.23;;;2.50;;
21334;SDS011;10826;52.536;13.432;2022-12-07T09:14:12;2.63;;;2.43;;
21334;SDS011;10826;52.536;13.432;2022-12-07T09:16:38;2.30;;;1.90;;
21334;SDS011;10826;52.536;13.432;2022-12-07T09:19:04;3.17;;;2.87;;
21334;SDS011;10826;52.536;13.432;2022-12-07T09:21:30;3.70;;;3.07;;
21334;SDS011;10826;52.536;13.432;2022-12-07T09:23:56;3.30;;;2.60;;
21334;SDS011;10826;52.536;13.432;2022-12-07T09:26:22;3.00;;;2.80;;
21334;SDS011;10826;52.536;13.432;2022-12-07T09:28:48;2.57;;;1.70;;
21334;SDS011;10826;52.536;13.432;2022-12-07T09:31:13;4.93;;;2.07;;
21334;SDS011;10826;52.536;13.432;2022-12-07T09:33:39;1.70;;;1.60;;
21334;SDS011;10826;52.536;13.432;2022-12-07T09:36:06;2.00;;;1.90;;
21334;SDS011;10826;52.536;13.432;2022-12-07T09:38:33;4.37;;;2.23;;
21334;SDS011;10826;52.536;13.432;2022-12-07T09:41:04;5.33;;;2.37;;
21334;SDS011;10826;52.536;13.432;2022-12-07T09:43:32;2.47;;;2.27;;
21334;SDS011;10826;52.536;13.432;2022-12-07T09:46:00;2.57;;;2.00;;
21334;SDS011;10826;52.536;13.432;2022-12-07T09:48:30;5.17;;;2.20;;
21334;SDS011;10826;52.536;13.432;2022-12-07T09:51:01;4.23;;;2.77;;
21334;SDS011;10826;52.536;13.432;2022-12-07T09:53:38;5.47;;;2.23;;
21334;SDS011;10826;52.536;13.432;2022-12-07T09:56:04;6.40;;;2.00;;
21334;SDS011;10826;52.536;13.432;2022-12-07T09:58:32;10.80;;;2.23;;
21334;SDS011;10826;52.536;13.432;2022-12-07T10:01:08;5.40;;;2.07;;
21334;SDS011;10826;52.536;13.432;2022-12-07T10:03:40;2.30;;;2.10;;
21334;SDS011;10826;52.536;13.432;2022-12-07T10:06:16;2.47;;;2.10;;
21334;SDS011;10826;52.536;13.432;2022-12-07T10:08:42;2.23;;;2.03;;
21334;SDS011;10826;52.536;13.432;2022-12-07T10:11:08;1.57;;;1.47;;
21334;SDS011;10826;52.536;13.432;2022-12-07T10:16:54;1.77;;;1.67;;
21334;SDS011;10826;52.536;13.432;2022-12-07T10:22:14;1.90;;;1.80;;
21334;SDS011;10826;52.536;13.432;2022-12-07T10:24:42;3.23;;;2.13;;
21334;SDS011;10826;52.536;13.432;2022-12-07T10:27:31;2.13;;;2.03;;
21334;SDS011;10826;52.536;13.432;2022-12-07T10:29:57;2.40;;;2.10;;
21334;SDS011;10826;52.536;13.432;2022-12-07T10:32:30;2.87;;;2.40;;
21334;SDS011;10826;52.536;13.432;2022-12-07T10:37:50;1.80;;;1.70;;
21334;SDS011;10826;52.536;13.432;2022-12-07T10:48:17;9.77;;;2.63;;
21334;SDS011;10826;52.536;13.432;2022-12-07T10:54:13;2.60;;;2.40;;
21334;SDS011;10826;52.536;13.432;2022-12-07T11:00:19;2.83;;;2.20;;
21334;SDS011;10826;52.536;13.432;2022-12-07T11:09:04;7.53;;;4.43;;
21334;SDS011;10826;52.536;13.432;2022-12-07T11:14:31;3.10;;;2.80;;
21334;SDS011;10826;52.536;13.432;2022-12-07T11:17:06;2.97;;;2.67;;
21334;SDS011;10826;52.536;13.432;2022-12-07T11:23:21;3.40;;;2.73;;
21334;SDS011;10826;52.536;13.432;2022-12-07T11:25:40;3.33;;;2.70;;
21334;SDS011;10826;52.536;13.432;2022-12-07T11:28:52;7.33;;;2.70;;
21334;SDS011;10826;52.536;13.432;2022-12-07T11:37:36;2.60;;;2.50;;
21334;SDS011;10826;52.536;13.432;2022-12-07T11:43:09;4.53;;;2.33;;
21334;SDS011;10826;52.536;13.432;2022-12-07T11:45:54;2.80;;;2.60;;
21334;SDS011;10826;52.536;13.432;2022-12-07T11:48:46;3.80;;;3.20;;
21334;SDS011;10826;52.536;13.432;2022-12-07T11:51:35;2.97;;;2.77;;
21334;SDS011;10826;52.536;13.432;2022-12-07T11:54:28;3.23;;;2.93;;
21334;SDS011;10826;52.536;13.432;2022-12-07T11:56:57;5.33;;;3.30;;
21334;SDS011;10826;52.536;13.432;2022-12-07T11:59:38;4.33;;;3.17;;
21334;SDS011;10826;52.536;13.432;2022-12-07T12:02:33;3.37;;;3.07;;
21334;SDS011;10826;52.536;13.432;2022-12-07T12:05:22;3.50;;;3.20;;
21334;SDS011;10826;52.536;13.432;2022-12-07T12:10:49;3.73;;;3.20;;
21334;SDS011;10826;52.536;13.432;2022-12-07T12:19:33;5.53;;;3.17;;
21334;SDS011;10826;52.536;13.432;2022-12-07T12:22:14;3.77;;;2.93;;
21334;SDS011;10826;52.536;13.432;2022-12-07T12:24:48;5.57;;;2.83;;
21334;SDS011;10826;52.536;13.432;2022-12-07T12:27:23;7.27;;;3.67;;
21334;SDS011;10826;52.536;13.432;2022-12-07T12:29:57;3.27;;;2.83;;
21334;SDS011;10826;52.536;13.432;2022-12-07T12:32:38;3.50;;;2.90;;
21334;SDS011;10826;52.536;13.432;2022-12-07T12:35:21;6.33;;;3.27;;
21334;SDS011;10826;52.536;13.432;2022-12-07T12:38:20;4.17;;;3.37;;
21334;SDS011;10826;52.536;13.432;2022-12-07T12:40:50;7.60;;;3.30;;
21334;SDS011;10826;52.536;13.432;2022-12-07T12:54:21;5.50;;;3.17;;
21334;SDS011;10826;52.536;13.432;2022-12-07T12:57:06;5.83;;;2.73;;
21334;SDS011;10826;52.536;13.432;2022-12-07T12:59:57;7.23;;;2.77;;
21334;SDS011;10826;52.536;13.432;2022-12-07T13:02:29;7.77;;;2.50;;
21334;SDS011;10826;52.536;13.432;2022-12-07T13:20:59;5.50;;;2.73;;
21334;SDS011;10826;52.536;13.432;2022-12-07T13:31:43;8.87;;;2.80;;
21334;SDS011;10826;52.536;13.432;2022-12-07T13:39:58;8.93;;;2.77;;
21334;SDS011;10826;52.536;13.432;2022-12-07T13:42:39;5.43;;;2.73;;
21334;SDS011;10826;52.536;13.432;2022-12-07T13:45:25;3.03;;;2.50;;
21334;SDS011;10826;52.536;13.432;2022-12-07T13:48:59;6.13;;;3.07;;
21334;SDS011;10826;52.536;13.432;2022-12-07T13:51:15;6.00;;;2.17;;
21334;SDS011;10826;52.536;13.432;2022-12-07T13:53:52;4.37;;;2.57;;
21334;SDS011;10826;52.536;13.432;2022-12-07T13:56:21;6.67;;;2.30;;
21334;SDS011;10826;52.536;13.432;2022-12-07T13:58:54;5.17;;;3.47;;
21334;SDS011;10826;52.536;13.432;2022-12-07T14:01:20;3.13;;;2.20;;
21334;SDS011;10826;52.536;13.432;2022-12-07T14:03:46;6.90;;;2.60;;
21334;SDS011;10826;52.536;13.432;2022-12-07T14:06:30;3.87;;;2.43;;
21334;SDS011;10826;52.536;13.432;2022-12-07T14:09:09;6.20;;;2.57;;
21334;SDS011;10826;52.536;13.432;2022-12-07T14:11:50;4.97;;;2.10;;
21334;SDS011;10826;52.536;13.432;2022-12-07T14:14:21;5.30;;;2.20;;
21334;SDS011;10826;52.536;13.432;2022-12-07T14:16:57;6.93;;;2.20;;
21334;SDS011;10826;52.536;13.432;2022-12-07T14:19:47;2.33;;;1.90;;
21334;SDS011;10826;52.536;13.432;2022-12-07T14:25:25;2.83;;;2.27;;
21334;SDS011;10826;52.536;13.432;2022-12-07T14:27:53;3.07;;;1.77;;
21334;SDS011;10826;52.536;13.432;2022-12-07T14:30:26;2.90;;;2.17;;
21334;SDS011;10826;52.536;13.432;2022-12-07T14:32:59;12.00;;;3.67;;
21334;SDS011;10826;52.536;13.432;2022-12-07T14:35:29;6.03;;;2.43;;
21334;SDS011;10826;52.536;13.432;2022-12-07T14:37:57;4.07;;;3.50;;
21334;SDS011;10826;52.536;13.432;2022-12-07T14:40:24;5.77;;;3.40;;
21334;SDS011;10826;52.536;13.432;2022-12-07T14:42:57;8.27;;;4.07;;
21334;SDS011;10826;52.536;13.432;2022-12-07T14:45:31;10.80;;;4.80;;
21334;SDS011;10826;52.536;13.432;2022-12-07T14:47:58;17.37;;;5.97;;
21334;SDS011;10826;52.536;13.432;2022-12-07T14:50:23;9.70;;;5.20;;
21334;SDS011;10826;52.536;13.432;2022-12-07T14:52:51;6.67;;;3.37;;
21334;SDS011;10826;52.536;13.432;2022-12-07T14:55:35;6.77;;;4.93;;
21334;SDS011;10826;52.536;13.432;2022-12-07T14:58:01;5.07;;;3.10;;
21334;SDS011;10826;52.536;13.432;2022-12-07T15:00:27;2.30;;;2.07;;
21334;SDS011;10826;52.536;13.432;2022-12-07T15:02:54;4.37;;;2.03;;
21334;SDS011;10826;52.536;13.432;2022-12-07T15:05:22;8.17;;;2.30;;
21334;SDS011;10826;52.536;13.432;2022-12-07T15:07:48;3.67;;;2.50;;
21334;SDS011;10826;52.536;13.432;2022-12-07T15:10:22;6.40;;;2.50;;
21334;SDS011;10826;52.536;13.432;2022-12-07T15:12:55;6.93;;;2.33;;
21334;SDS011;10826;52.536;13.432;2022-12-07T15:15:49;6.90;;;2.07;;
21334;SDS011;10826;52.536;13.432;2022-12-07T15:18:17;5.97;;;2.60;;
21334;SDS011;10826;52.536;13.432;2022-12-07T15:20:45;5.47;;;2.27;;
21334;SDS011;10826;52.536;13.432;2022-12-07T15:23:12;3.47;;;2.20;;
21334;SDS011;10826;52.536;13.432;2022-12-07T15:25:42;5.53;;;2.00;;
21334;SDS011;10826;52.536;13.432;2022-12-07T15:28:10;5.10;;;1.83;;
21334;SDS011;10826;52.536;13.432;2022-12-07T15:30:37;5.83;;;2.00;;
21334;SDS011;10826;52.536;13.432;2022-12-07T15:33:03;8.03;;;2.20;;
21334;SDS011;10826;52.536;13.432;2022-12-07T15:35:29;2.30;;;1.97;;
21334;SDS011;10826;52.536;13.432;2022-12-07T15:37:55;4.33;;;1.77;;
21334;SDS011;10826;52.536;13.432;2022-12-07T15:40:21;8.90;;;2.20;;
21334;SDS011;10826;52.536;13.432;2022-12-07T15:42:47;5.03;;;1.63;;
21334;SDS011;10826;52.536;13.432;2022-12-07T15:45:13;8.43;;;1.90;;
21334;SDS011;10826;52.536;13.432;2022-12-07T15:47:40;3.60;;;2.30;;
21334;SDS011;10826;52.536;13.432;2022-12-07T15:50:12;4.33;;;2.23;;
21334;SDS011;10826;52.536;13.432;2022-12-07T15:52:41;4.13;;;2.33;;
21334;SDS011;10826;52.536;13.432;2022-12-07T15:55:09;3.83;;;1.77;;
21334;SDS011;10826;52.536;13.432;2022-12-07T15:57:36;6.30;;;2.10;;
21334;SDS011;10826;52.536;13.432;2022-12-07T16:00:07;4.10;;;2.13;;
21334;SDS011;10826;52.536;13.432;2022-12-07T16:02:34;5.37;;;2.00;;
21334;SDS011;10826;52.536;13.432;2022-12-07T16:05:02;5.53;;;1.70;;
21334;SDS011;10826;52.536;13.432;2022-12-07T16:07:28;6.17;;;2.83;;
21334;SDS011;10826;52.536;13.432;2022-12-07T16:09:54;14.17;;;4.20;;
21334;SDS011;10826;52.536;13.432;2022-12-07T16:12:20;4.20;;;2.10;;
21334;SDS011;10826;52.536;13.432;2022-12-07T16:14:46;6.10;;;3.73;;
21334;SDS011;10826;52.536;13.432;2022-12-07T16:17:12;8.83;;;3.33;;
21334;SDS011;10826;52.536;13.432;2022-12-07T16:19:37;2.03;;;1.83;;
21334;SDS011;10826;52.536;13.432;2022-12-07T16:22:04;8.70;;;2.30;;
21334;SDS011;10826;52.536;13.432;2022-12-07T16:24:30;6.27;;;2.73;;
21334;SDS011;10826;52.536;13.432;2022-12-07T16:26:56;5.33;;;2.23;;
21334;SDS011;10826;52.536;13.432;2022-12-07T16:29:22;4.50;;;2.80;;
21334;SDS011;10826;52.536;13.432;2022-12-07T16:31:48;8.63;;;3.63;;
21334;SDS011;10826;52.536;13.432;2022-12-07T16:34:16;7.63;;;2.63;;
21334;SDS011;10826;52.536;13.432;2022-12-07T16:36:42;4.00;;;2.30;;
21334;SDS011;10826;52.536;13.432;2022-12-07T16:39:09;4.57;;;2.13;;
21334;SDS011;10826;52.536;13.432;2022-12-07T16:41:35;4.73;;;2.00;;
21334;SDS011;10826;52.536;13.432;2022-12-07T16:44:02;7.27;;;2.33;;
21334;SDS011;10826;52.536;13.432;2022-12-07T16:46:31;4.00;;;2.53;;
21334;SDS011;10826;52.536;13.432;2022-12-07T16:48:59;9.77;;;2.57;;
21334;SDS011;10826;52.536;13.432;2022-12-07T16:51:25;8.67;;;2.13;;
21334;SDS011;10826;52.536;13.432;2022-12-07T16:53:52;8.77;;;2.83;;
21334;SDS011;10826;52.536;13.432;2022-12-07T16:56:19;4.63;;;2.33;;
21334;SDS011;10826;52.536;13.432;2022-12-07T16:58:46;5.60;;;2.40;;
21334;SDS011;10826;52.536;13.432;2022-12-07T17:01:19;6.43;;;2.47;;
21334;SDS011;10826;52.536;13.432;2022-12-07T17:03:47;6.50;;;3.43;;